Share

Huxford, AL

B.E.C. (KALATMOR3) Elev 272 ft | 31.07 °N, 87.37 °W | Change Station
Active Advisory: Flood Warning

Current weather conditions updated 14 minutes ago

Overcast
Overcast
74.8 °F
Feels Like 78 °F
N
2.0
Wind Variable Wind from NNE
Gusts 11.0 mph
Sunrise 6:17 AM
Sunset 7:21 PM
Moon Waning Gibbous

Tomorrow is forecast to be Cooler than today.

Pressure 30.05 in
Visibility 10.0 miles
Clouds Overcast 6000 ft
Heat Index 78 °F
Dew Point 56 °F
Humidity 53%
Rainfall 0.00 in
Snow Depth Not available.
UV 0 out of 16
Pollen 8.20 out of 12
Air Quality Not available.
Flu Activity Sporadic
METAR KPNS 192353Z 02008KT 10SM OVC060 24/11 A3004 RMK AO2 SLP174 T02390106 10261 20233 53013

More Conditions Fewer Conditions

Pressure 30.05 in
Visibility 10.0 miles
Clouds Overcast 6000 ft
Heat Index 78 °F
Dew Point 56 °F
Humidity 53%
Rainfall 0.00 in
Snow Depth Not available.
UV 0 out of 16
Pollen 8.20 out of 12
Air Quality Not available.
Flu Activity Sporadic
METAR KPNS 192353Z 02008KT 10SM OVC060 24/11 A3004 RMK AO2 SLP174 T02390106 10261 20233 53013

More Conditions Fewer Conditions

10-Day Weather Forecast

Almanac

Astronomy

Apr. 19, 2014 Rise Set
Actual Time 6:17 AM CDT 7:21 PM CDT
Civil Twilight 5:52 AM CDT 7:46 PM CDT
Nautical Twilight 5:22 AM CDT 8:15 PM CDT
Astronomical Twilight 4:52 AM CDT 8:46 PM CDT
Moon 11:53 PM CDT (4/19) 9:44 AM CDT (4/19)
Length of Visible Light 13h 53m
Length of Day
13h 03m
Tomorrow will be 1m 46s longer.
Waning Gibbous, 75% of the Moon is Illuminated
Today
Waning Gibbous
Apr 22
Last Quarter
Apr 29
New
May 6
First Quarter
May 14
Full

Today's Extremes

State Highs State Lows

Community

  • New Day
    New Day
  • Happy Easter!
    Happy Easter!
  • poppy bloom near Mazar-e-Sharif
    poppy bloom near Mazar-e-Sharif
  • Happy Easter WU friends!!!!
    Happy Easter WU friends!!!!
  • Skirting the Horizon
    Skirting the Horizon

WunderPhotos

Upload Photos

1,702,986 photos uploaded!

WunderBlogs® & News

Nearby

Snow Depth

Station Depth Elevation
No new snow has been reported.

Coastal Water Temperatures

Place Temperature
No Stations Reporting

Earthquake Activity

City Distance Mag. Time & Date
No recent earthquake activity has been reported nearby.
Minimum magnitude displayed is 2.5.

Nearby Weather Stations

Station Location Temp. Heat Index Dew Point Humidity Wind Precip. Elev Updated Type
B.E.C., Atmore, AL 74.8 °F 78 °F 56 °F 53% NNE  at  2.0 mph 0.00 in / hr 272 ft 7:13 PM CDT Normal
Nokomis, Atmore, AL 69.6 °F - 18 °F 14% NW  at  0.0 mph 0.00 in / hr 269 ft 7:28 PM CDT Rapid Fire
Perdue Hill, AL 71.2 °F 76 °F 56 °F 59% East  at  0.0 mph 0.00 in / hr 70 ft 7:25 PM CDT Normal

Show More Stations Show Fewer Stations

What do you think?

We're not finished. Please let us know what you like, what you don't like, and what you are still missing.